Airfield :
LOGIN :

Register | Disclaimer

   EN    FR    IT 

 










Legend :    VFR   Marginal VFR   IFR   Intensive IFR   Very Intensive IFR
Visi :
Ceiling :
>= 8 km
>= 3000ft
5 to 8 km
1000 to 3000 ft
1500m to 5 km
500 to 1000 ft
800 to 1500m
200 to 500 ft
< 800m
< 200 ft
Symbols :   Thunderstorms  Fog  Heavy snow  Heavy precipitations  Wind > 20 kt
SIGMETs :     Misc.  Thunderstorms  Icing  Turbulence  Mountain Waves  Volcanic Ashes







- Airport Elevation : 40 ft
- IATA code : RMI


LIPR - Federico Fellini Int. Rimini

CURRENT METAR :
  • 210245Z 23002KT CAVOK 16/14 Q1014

EXPIRED METARs :
  • 210215Z 24003KT CAVOK 16/13 Q1014
  • 210145Z 25002KT CAVOK 16/14 Q1014
  • 210115Z 24005KT CAVOK 16/14 Q1014
  • 210045Z 24005KT CAVOK 16/14 Q1014
  • 210015Z 24003KT CAVOK 16/14 Q1014
  • 202345Z 24003KT CAVOK 16/15 Q1014 RMK FEW FEW180 VIS MIN 9999 WIND THR31 25001KT BLU

TAF TAF LIPR
Valid from the 21 at 03:00 until the 21 at 12:00 UTC


210200Z 2103/2112 27005KT 9999 FEW040
PROB30
TEMPO 2103/2106 4000 BR NSC
No reported NOTAMs for that airfield.
1 SIGMET reported for the Milano FIR (LIMM) :
 
Embedded thunderstorms
LIMM SIGMET 1 VALID 210105/210505 LIIP
LIMM MILANO FIR EMBD TS FCST WI N4606 E00903 - N4625 E00827 - N4553 E00645 - N4406 E00652 - N4359 E00733 - N4429 E00847 - N4442 E00916 - N4606 E00903 TOP FL320 STNR NC=



MET'MAP, your aeronautical weather chart ! - Copyright ORBIFLY December 2007 - Disclaimer

ORBIFLY MET'MAP TEAM :

Programming & Development : Alexandra Zaïnal
Concept & Development : Baudouin d'Aumeries
Co-Development & Prog : Marc-Olivier Méhu
Technical & hardware support : Manuel Goepfert

Contact : metmap@orbifly.com




SOURCES & CREDITS :

   NOAA